sensor_id;sensor_type;location;lat;lon;timestamp;pressure;altitude;pressure_sealevel;temperature
28305;BMP280;15569;42.652;23.040;2023-04-01T00:00:27;92179.09;;;14.72
28305;BMP280;15569;42.652;23.040;2023-04-01T00:02:52;92181.88;;;14.74
28305;BMP280;15569;42.652;23.040;2023-04-01T00:05:18;92180.72;;;14.85
28305;BMP280;15569;42.652;23.040;2023-04-01T00:07:43;92175.94;;;14.86
28305;BMP280;15569;42.652;23.040;2023-04-01T00:10:11;92173.88;;;14.84
28305;BMP280;15569;42.652;23.040;2023-04-01T00:12:37;92182.25;;;14.92
28305;BMP280;15569;42.652;23.040;2023-04-01T00:15:05;92172.00;;;14.93
28305;BMP280;15569;42.652;23.040;2023-04-01T00:17:30;92173.66;;;15.08
28305;BMP280;15569;42.652;23.040;2023-04-01T00:19:56;92182.69;;;15.14
28305;BMP280;15569;42.652;23.040;2023-04-01T00:22:25;92172.47;;;15.17
28305;BMP280;15569;42.652;23.040;2023-04-01T00:24:51;92172.56;;;15.21
28305;BMP280;15569;42.652;23.040;2023-04-01T00:27:17;92160.88;;;15.18
28305;BMP280;15569;42.652;23.040;2023-04-01T00:29:43;92157.41;;;15.18
28305;BMP280;15569;42.652;23.040;2023-04-01T00:32:09;92164.34;;;15.21
28305;BMP280;15569;42.652;23.040;2023-04-01T00:34:34;92152.53;;;15.12
28305;BMP280;15569;42.652;23.040;2023-04-01T00:37:00;92143.03;;;15.17
28305;BMP280;15569;42.652;23.040;2023-04-01T00:39:28;92145.88;;;15.23
28305;BMP280;15569;42.652;23.040;2023-04-01T00:41:54;92144.44;;;15.18
28305;BMP280;15569;42.652;23.040;2023-04-01T00:44:25;92145.88;;;15.23
28305;BMP280;15569;42.652;23.040;2023-04-01T00:46:50;92148.50;;;15.17
28305;BMP280;15569;42.652;23.040;2023-04-01T00:49:19;92129.13;;;15.05
28305;BMP280;15569;42.652;23.040;2023-04-01T00:51:47;92127.16;;;15.08
28305;BMP280;15569;42.652;23.040;2023-04-01T00:54:14;92122.41;;;15.10
28305;BMP280;15569;42.652;23.040;2023-04-01T00:56:49;92116.13;;;15.06
28305;BMP280;15569;42.652;23.040;2023-04-01T00:59:23;92122.53;;;15.18
28305;BMP280;15569;42.652;23.040;2023-04-01T01:01:50;92110.94;;;15.20
28305;BMP280;15569;42.652;23.040;2023-04-01T01:12:40;92087.63;;;15.17
28305;BMP280;15569;42.652;23.040;2023-04-01T01:15:24;92078.72;;;15.18
28305;BMP280;15569;42.652;23.040;2023-04-01T01:18:03;92082.81;;;15.17
28305;BMP280;15569;42.652;23.040;2023-04-01T01:37:11;92085.44;;;15.09
28305;BMP280;15569;42.652;23.040;2023-04-01T01:39:39;92071.75;;;15.09
28305;BMP280;15569;42.652;23.040;2023-04-01T01:42:08;92064.31;;;15.14
28305;BMP280;15569;42.652;23.040;2023-04-01T01:44:35;92078.72;;;15.18
28305;BMP280;15569;42.652;23.040;2023-04-01T01:47:02;92060.88;;;15.13
28305;BMP280;15569;42.652;23.040;2023-04-01T01:49:29;92055.97;;;15.08
28305;BMP280;15569;42.652;23.040;2023-04-01T01:51:57;92067.75;;;15.16
28305;BMP280;15569;42.652;23.040;2023-04-01T01:54:22;92063.03;;;15.21
28305;BMP280;15569;42.652;23.040;2023-04-01T01:56:51;92048.72;;;15.24
28305;BMP280;15569;42.652;23.040;2023-04-01T01:59:19;92057.47;;;15.15
28305;BMP280;15569;42.652;23.040;2023-04-01T02:01:49;92055.28;;;15.07
28305;BMP280;15569;42.652;23.040;2023-04-01T02:04:17;92058.94;;;15.20
28305;BMP280;15569;42.652;23.040;2023-04-01T02:06:49;92058.94;;;15.20
28305;BMP280;15569;42.652;23.040;2023-04-01T02:09:18;92037.75;;;14.85
28305;BMP280;15569;42.652;23.040;2023-04-01T02:11:48;92046.66;;;14.85
28305;BMP280;15569;42.652;23.040;2023-04-01T02:14:17;92044.94;;;15.02
28305;BMP280;15569;42.652;23.040;2023-04-01T02:19:15;92045.66;;;15.06
28305;BMP280;15569;42.652;23.040;2023-04-01T02:21:50;92020.94;;;15.00
28305;BMP280;15569;42.652;23.040;2023-04-01T02:24:17;92024.34;;;14.99
28305;BMP280;15569;42.652;23.040;2023-04-01T02:26:44;92032.50;;;14.97
28305;BMP280;15569;42.652;23.040;2023-04-01T02:29:11;92039.97;;;14.94
28305;BMP280;15569;42.652;23.040;2023-04-01T02:31:37;92053.13;;;15.02
28305;BMP280;15569;42.652;23.040;2023-04-01T02:34:03;92049.09;;;15.05
28305;BMP280;15569;42.652;23.040;2023-04-01T02:36:29;92057.25;;;15.03
28305;BMP280;15569;42.652;23.040;2023-04-01T02:38:55;92060.78;;;15.09
28305;BMP280;15569;42.652;23.040;2023-04-01T02:41:21;92060.72;;;15.05
28305;BMP280;15569;42.652;23.040;2023-04-01T02:43:46;92067.56;;;15.06
28305;BMP280;15569;42.652;23.040;2023-04-01T02:46:12;92071.75;;;15.11
28305;BMP280;15569;42.652;23.040;2023-04-01T02:48:37;92073.88;;;15.15
28305;BMP280;15569;42.652;23.040;2023-04-01T02:51:03;92086.38;;;14.88
28305;BMP280;15569;42.652;23.040;2023-04-01T02:53:29;92081.22;;;14.35
28305;BMP280;15569;42.652;23.040;2023-04-01T02:55:54;92080.25;;;14.54
28305;BMP280;15569;42.652;23.040;2023-04-01T02:58:21;92098.16;;;14.61
28305;BMP280;15569;42.652;23.040;2023-04-01T03:00:46;92082.94;;;14.20
28305;BMP280;15569;42.652;23.040;2023-04-01T03:03:12;92083.34;;;14.38
28305;BMP280;15569;42.652;23.040;2023-04-01T03:05:39;92087.00;;;14.17
28305;BMP280;15569;42.652;23.040;2023-04-01T03:08:04;92099.28;;;13.87
28305;BMP280;15569;42.652;23.040;2023-04-01T03:10:30;92091.59;;;14.09
28305;BMP280;15569;42.652;23.040;2023-04-01T03:12:55;92096.84;;;14.30
28305;BMP280;15569;42.652;23.040;2023-04-01T03:15:21;92088.81;;;14.07
28305;BMP280;15569;42.652;23.040;2023-04-01T03:17:46;92054.22;;;14.19
28305;BMP280;15569;42.652;23.040;2023-04-01T03:20:13;92036.00;;;14.30
28305;BMP280;15569;42.652;23.040;2023-04-01T03:22:39;92029.53;;;14.49
28305;BMP280;15569;42.652;23.040;2023-04-01T03:25:05;92018.59;;;14.47
28305;BMP280;15569;42.652;23.040;2023-04-01T03:27:33;92010.81;;;14.35
28305;BMP280;15569;42.652;23.040;2023-04-01T03:29:59;92003.75;;;13.91
28305;BMP280;15569;42.652;23.040;2023-04-01T03:32:25;91994.25;;;13.94
28305;BMP280;15569;42.652;23.040;2023-04-01T03:34:50;91991.34;;;14.17
28305;BMP280;15569;42.652;23.040;2023-04-01T03:37:16;91979.38;;;14.34
28305;BMP280;15569;42.652;23.040;2023-04-01T03:39:41;91969.28;;;14.43
28305;BMP280;15569;42.652;23.040;2023-04-01T03:42:06;91979.09;;;14.56
28305;BMP280;15569;42.652;23.040;2023-04-01T03:44:35;91979.22;;;14.62
28305;BMP280;15569;42.652;23.040;2023-04-01T03:47:01;91982.00;;;14.64
28305;BMP280;15569;42.652;23.040;2023-04-01T03:49:26;91967.59;;;14.62
28305;BMP280;15569;42.652;23.040;2023-04-01T03:51:52;91967.91;;;14.42
28305;BMP280;15569;42.652;23.040;2023-04-01T03:54:17;91972.56;;;13.68
28305;BMP280;15569;42.652;23.040;2023-04-01T03:56:45;91966.69;;;12.95
28305;BMP280;15569;42.652;23.040;2023-04-01T03:59:11;91966.78;;;12.71
28305;BMP280;15569;42.652;23.040;2023-04-01T04:01:37;91957.78;;;13.20
28305;BMP280;15569;42.652;23.040;2023-04-01T04:04:02;91949.00;;;13.53
28305;BMP280;15569;42.652;23.040;2023-04-01T04:06:28;91950.13;;;13.74
28305;BMP280;15569;42.652;23.040;2023-04-01T04:08:54;91939.53;;;13.90
28305;BMP280;15569;42.652;23.040;2023-04-01T04:11:20;91953.03;;;14.15
28305;BMP280;15569;42.652;23.040;2023-04-01T04:13:46;91942.16;;;14.19
28305;BMP280;15569;42.652;23.040;2023-04-01T04:16:13;91929.88;;;14.18
28305;BMP280;15569;42.652;23.040;2023-04-01T04:18:38;91926.22;;;14.08
28305;BMP280;15569;42.652;23.040;2023-04-01T04:21:04;91933.41;;;14.25
28305;BMP280;15569;42.652;23.040;2023-04-01T04:23:29;91919.16;;;13.63
28305;BMP280;15569;42.652;23.040;2023-04-01T04:26:05;91930.41;;;14.11
28305;BMP280;15569;42.652;23.040;2023-04-01T04:28:30;91927.22;;;14.22
28305;BMP280;15569;42.652;23.040;2023-04-01T04:30:56;91920.00;;;14.39
28305;BMP280;15569;42.652;23.040;2023-04-01T04:33:23;91905.16;;;14.50
28305;BMP280;15569;42.652;23.040;2023-04-01T04:35:49;91911.44;;;14.57
28305;BMP280;15569;42.652;23.040;2023-04-01T04:38:15;91895.75;;;14.57
28305;BMP280;15569;42.652;23.040;2023-04-01T04:40:41;91895.03;;;14.57
28305;BMP280;15569;42.652;23.040;2023-04-01T04:43:10;91883.88;;;14.45
28305;BMP280;15569;42.652;23.040;2023-04-01T04:45:36;91884.72;;;14.15
28305;BMP280;15569;42.652;23.040;2023-04-01T04:48:01;91875.78;;;14.13
28305;BMP280;15569;42.652;23.040;2023-04-01T04:50:26;91891.75;;;14.26
28305;BMP280;15569;42.652;23.040;2023-04-01T04:52:52;91873.63;;;14.07
28305;BMP280;15569;42.652;23.040;2023-04-01T04:55:17;91891.75;;;14.26
28305;BMP280;15569;42.652;23.040;2023-04-01T04:57:43;91883.06;;;14.38
28305;BMP280;15569;42.652;23.040;2023-04-01T05:00:09;91869.59;;;14.48
28305;BMP280;15569;42.652;23.040;2023-04-01T05:02:37;91854.22;;;14.29
28305;BMP280;15569;42.652;23.040;2023-04-01T05:05:03;91855.84;;;14.44
28305;BMP280;15569;42.652;23.040;2023-04-01T05:07:29;91857.19;;;14.43
28305;BMP280;15569;42.652;23.040;2023-04-01T05:09:54;91855.59;;;14.30
28305;BMP280;15569;42.652;23.040;2023-04-01T05:12:20;91859.81;;;14.35
28305;BMP280;15569;42.652;23.040;2023-04-01T05:14:45;91856.50;;;14.43
28305;BMP280;15569;42.652;23.040;2023-04-01T05:17:12;91846.09;;;14.33
28305;BMP280;15569;42.652;23.040;2023-04-01T05:19:38;91849.03;;;14.45
28305;BMP280;15569;42.652;23.040;2023-04-01T05:22:04;91858.84;;;14.60
28305;BMP280;15569;42.652;23.040;2023-04-01T05:24:30;91857.50;;;14.59
28305;BMP280;15569;42.652;23.040;2023-04-01T05:26:56;91850.78;;;14.68
28305;BMP280;15569;42.652;23.040;2023-04-01T05:29:23;91862.19;;;14.96
28305;BMP280;15569;42.652;23.040;2023-04-01T05:31:48;91859.03;;;15.14
28305;BMP280;15569;42.652;23.040;2023-04-01T05:34:13;91839.19;;;15.15
28305;BMP280;15569;42.652;23.040;2023-04-01T05:36:39;91852.66;;;15.51
28305;BMP280;15569;42.652;23.040;2023-04-01T05:39:05;91841.91;;;15.65
28305;BMP280;15569;42.652;23.040;2023-04-01T05:41:30;91832.59;;;15.90
28305;BMP280;15569;42.652;23.040;2023-04-01T05:43:55;91836.09;;;15.97
28305;BMP280;15569;42.652;23.040;2023-04-01T05:46:21;91833.44;;;16.07
28305;BMP280;15569;42.652;23.040;2023-04-01T05:48:46;91830.72;;;16.07
28305;BMP280;15569;42.652;23.040;2023-04-01T05:51:13;91821.91;;;15.55
28305;BMP280;15569;42.652;23.040;2023-04-01T05:53:39;91826.53;;;15.42
28305;BMP280;15569;42.652;23.040;2023-04-01T05:56:04;91832.28;;;15.10
28305;BMP280;15569;42.652;23.040;2023-04-01T05:58:30;91838.63;;;14.77
28305;BMP280;15569;42.652;23.040;2023-04-01T06:01:04;91831.00;;;14.70
28305;BMP280;15569;42.652;23.040;2023-04-01T06:03:29;91817.31;;;14.70
28305;BMP280;15569;42.652;23.040;2023-04-01T06:05:55;91829.84;;;14.85
28305;BMP280;15569;42.652;23.040;2023-04-01T06:08:20;91827.56;;;14.69
28305;BMP280;15569;42.652;23.040;2023-04-01T06:13:42;91828.50;;;14.44
28305;BMP280;15569;42.652;23.040;2023-04-01T06:54:53;91777.78;;;14.79
28305;BMP280;15569;42.652;23.040;2023-04-01T06:57:34;91782.06;;;14.46
28305;BMP280;15569;42.652;23.040;2023-04-01T07:00:05;91777.00;;;14.72
28305;BMP280;15569;42.652;23.040;2023-04-01T07:02:33;91773.22;;;14.95
28305;BMP280;15569;42.652;23.040;2023-04-01T07:05:02;91777.78;;;15.31
28305;BMP280;15569;42.652;23.040;2023-04-01T07:10:17;91806.22;;;15.59
28305;BMP280;15569;42.652;23.040;2023-04-01T07:12:52;91803.94;;;15.42
28305;BMP280;15569;42.652;23.040;2023-04-01T07:15:25;91792.50;;;15.59
28305;BMP280;15569;42.652;23.040;2023-04-01T07:17:57;91785.81;;;15.72
28305;BMP280;15569;42.652;23.040;2023-04-01T07:20:29;91786.84;;;16.05
28305;BMP280;15569;42.652;23.040;2023-04-01T07:22:58;91786.25;;;16.14
28305;BMP280;15569;42.652;23.040;2023-04-01T07:25:28;91791.03;;;16.14
28305;BMP280;15569;42.652;23.040;2023-04-01T07:28:02;91801.03;;;15.85
28305;BMP280;15569;42.652;23.040;2023-04-01T07:30:40;91791.47;;;15.28
28305;BMP280;15569;42.652;23.040;2023-04-01T07:33:27;91800.50;;;14.89
28305;BMP280;15569;42.652;23.040;2023-04-01T07:46:15;91802.44;;;14.81
28305;BMP280;15569;42.652;23.040;2023-04-01T07:51:51;91773.09;;;14.85
28305;BMP280;15569;42.652;23.040;2023-04-01T07:54:40;91765.66;;;14.94
28305;BMP280;15569;42.652;23.040;2023-04-01T07:59:59;91765.28;;;15.13
28305;BMP280;15569;42.652;23.040;2023-04-01T08:10:52;91733.78;;;15.14
28305;BMP280;15569;42.652;23.040;2023-04-01T08:13:34;91725.16;;;15.36
28305;BMP280;15569;42.652;23.040;2023-04-01T08:21:31;91716.69;;;15.78
28305;BMP280;15569;42.652;23.040;2023-04-01T08:23:58;91706.75;;;16.16
28305;BMP280;15569;42.652;23.040;2023-04-01T08:26:37;91700.97;;;15.80
28305;BMP280;15569;42.652;23.040;2023-04-01T08:31:48;91693.47;;;15.83
28305;BMP280;15569;42.652;23.040;2023-04-01T08:34:19;91695.44;;;15.74
28305;BMP280;15569;42.652;23.040;2023-04-01T08:37:04;91710.91;;;15.48
28305;BMP280;15569;42.652;23.040;2023-04-01T08:39:50;91705.69;;;15.70
28305;BMP280;15569;42.652;23.040;2023-04-01T08:50:22;91682.88;;;15.49
28305;BMP280;15569;42.652;23.040;2023-04-01T08:53:12;91694.50;;;15.50
28305;BMP280;15569;42.652;23.040;2023-04-01T08:55:51;91685.00;;;15.55
28305;BMP280;15569;42.652;23.040;2023-04-01T08:58:32;91674.84;;;15.71
28305;BMP280;15569;42.652;23.040;2023-04-01T09:10:36;91668.66;;;15.69
28305;BMP280;15569;42.652;23.040;2023-04-01T09:16:11;91670.09;;;15.74
28305;BMP280;15569;42.652;23.040;2023-04-01T09:27:05;91640.06;;;15.86
28305;BMP280;15569;42.652;23.040;2023-04-01T10:10:52;91582.25;;;16.64
28305;BMP280;15569;42.652;23.040;2023-04-01T10:13:42;91556.91;;;16.69
28305;BMP280;15569;42.652;23.040;2023-04-01T10:19:55;91565.72;;;16.44
28305;BMP280;15569;42.652;23.040;2023-04-01T10:28:36;91544.91;;;15.94
28305;BMP280;15569;42.652;23.040;2023-04-01T10:33:38;91536.75;;;16.06
28305;BMP280;15569;42.652;23.040;2023-04-01T11:01:17;91503.31;;;16.40
28305;BMP280;15569;42.652;23.040;2023-04-01T11:26:03;91689.81;;;13.63
28305;BMP280;15569;42.652;23.040;2023-04-01T11:34:09;91722.38;;;12.52
28305;BMP280;15569;42.652;23.040;2023-04-01T11:39:22;91740.28;;;12.31
28305;BMP280;15569;42.652;23.040;2023-04-01T11:42:09;91770.88;;;12.02
28305;BMP280;15569;42.652;23.040;2023-04-01T11:44:46;91731.50;;;11.79
28305;BMP280;15569;42.652;23.040;2023-04-01T12:05:38;91742.59;;;13.06
28305;BMP280;15569;42.652;23.040;2023-04-01T12:11:28;91753.59;;;13.08
28305;BMP280;15569;42.652;23.040;2023-04-01T12:16:55;91779.13;;;12.91
28305;BMP280;15569;42.652;23.040;2023-04-01T12:19:42;91753.56;;;12.47
28305;BMP280;15569;42.652;23.040;2023-04-01T12:30:14;91774.38;;;12.62
28305;BMP280;15569;42.652;23.040;2023-04-01T12:35:21;91739.25;;;12.17
28305;BMP280;15569;42.652;23.040;2023-04-01T12:41:29;91710.84;;;12.26
28305;BMP280;15569;42.652;23.040;2023-04-01T12:52:17;91713.75;;;12.04
28305;BMP280;15569;42.652;23.040;2023-04-01T12:54:48;91708.59;;;11.89
28305;BMP280;15569;42.652;23.040;2023-04-01T13:14:04;91684.78;;;13.87
28305;BMP280;15569;42.652;23.040;2023-04-01T13:16:57;91663.00;;;14.89
28305;BMP280;15569;42.652;23.040;2023-04-01T13:19:37;91666.84;;;17.13
28305;BMP280;15569;42.652;23.040;2023-04-01T13:23:09;91660.72;;;17.25
28305;BMP280;15569;42.652;23.040;2023-04-01T13:25:51;91653.09;;;15.85
28305;BMP280;15569;42.652;23.040;2023-04-01T13:28:23;91643.50;;;15.16
28305;BMP280;15569;42.652;23.040;2023-04-01T13:30:59;91641.41;;;15.83
28305;BMP280;15569;42.652;23.040;2023-04-01T13:33:48;91622.75;;;14.93
28305;BMP280;15569;42.652;23.040;2023-04-01T13:44:17;91615.41;;;17.32
28305;BMP280;15569;42.652;23.040;2023-04-01T13:47:03;91596.91;;;17.73
28305;BMP280;15569;42.652;23.040;2023-04-01T13:50:27;91591.56;;;16.02
28305;BMP280;15569;42.652;23.040;2023-04-01T13:58:29;91593.47;;;15.84
28305;BMP280;15569;42.652;23.040;2023-04-01T14:01:12;91587.19;;;15.69
28305;BMP280;15569;42.652;23.040;2023-04-01T14:20:22;91582.19;;;15.44
28305;BMP280;15569;42.652;23.040;2023-04-01T14:33:33;91568.44;;;18.81
28305;BMP280;15569;42.652;23.040;2023-04-01T14:38:37;91552.06;;;18.45
28305;BMP280;15569;42.652;23.040;2023-04-01T14:51:41;91537.78;;;15.55
28305;BMP280;15569;42.652;23.040;2023-04-01T14:54:19;91561.50;;;15.26
28305;BMP280;15569;42.652;23.040;2023-04-01T14:56:50;91553.31;;;15.28
28305;BMP280;15569;42.652;23.040;2023-04-01T15:01:58;91559.44;;;14.61
28305;BMP280;15569;42.652;23.040;2023-04-01T15:05:02;91573.78;;;14.60
28305;BMP280;15569;42.652;23.040;2023-04-01T15:19:12;91575.97;;;15.35
28305;BMP280;15569;42.652;23.040;2023-04-01T15:24:21;91594.28;;;16.00
28305;BMP280;15569;42.652;23.040;2023-04-01T15:27:09;91585.59;;;15.38
28305;BMP280;15569;42.652;23.040;2023-04-01T15:32:46;91587.13;;;14.87
28305;BMP280;15569;42.652;23.040;2023-04-01T15:40:41;91728.78;;;14.47
28305;BMP280;15569;42.652;23.040;2023-04-01T15:43:48;91700.28;;;13.03
28305;BMP280;15569;42.652;23.040;2023-04-01T15:46:29;91756.09;;;12.39
28305;BMP280;15569;42.652;23.040;2023-04-01T15:52:06;91752.25;;;11.93
28305;BMP280;15569;42.652;23.040;2023-04-01T16:00:29;91817.31;;;11.33
28305;BMP280;15569;42.652;23.040;2023-04-01T16:03:24;91835.66;;;11.33
28305;BMP280;15569;42.652;23.040;2023-04-01T16:09:22;91860.00;;;10.83
28305;BMP280;15569;42.652;23.040;2023-04-01T16:14:33;91833.31;;;10.99
28305;BMP280;15569;42.652;23.040;2023-04-01T16:22:32;91844.72;;;13.61
28305;BMP280;15569;42.652;23.040;2023-04-01T16:27:54;91862.03;;;12.25
28305;BMP280;15569;42.652;23.040;2023-04-01T16:43:44;91890.03;;;11.09
28305;BMP280;15569;42.652;23.040;2023-04-01T16:56:49;91916.47;;;10.44
28305;BMP280;15569;42.652;23.040;2023-04-01T16:59:21;91899.53;;;10.25
28305;BMP280;15569;42.652;23.040;2023-04-01T17:01:53;91923.72;;;10.00
28305;BMP280;15569;42.652;23.040;2023-04-01T17:18:04;91929.78;;;9.98
28305;BMP280;15569;42.652;23.040;2023-04-01T17:20:43;91915.84;;;10.47
28305;BMP280;15569;42.652;23.040;2023-04-01T17:23:23;91918.88;;;10.55
28305;BMP280;15569;42.652;23.040;2023-04-01T17:26:02;91910.69;;;10.75
28305;BMP280;15569;42.652;23.040;2023-04-01T17:28:46;91913.59;;;10.81
28305;BMP280;15569;42.652;23.040;2023-04-01T17:39:20;91951.09;;;11.49
28305;BMP280;15569;42.652;23.040;2023-04-01T17:41:53;91944.59;;;11.58
28305;BMP280;15569;42.652;23.040;2023-04-01T17:44:52;91944.34;;;11.50
28305;BMP280;15569;42.652;23.040;2023-04-01T17:53:27;91964.00;;;11.70
28305;BMP280;15569;42.652;23.040;2023-04-01T17:58:41;91971.34;;;11.66
28305;BMP280;15569;42.652;23.040;2023-04-01T18:06:14;91995.34;;;11.71
28305;BMP280;15569;42.652;23.040;2023-04-01T18:08:58;91994.72;;;11.30
28305;BMP280;15569;42.652;23.040;2023-04-01T18:16:44;91999.91;;;11.02
28305;BMP280;15569;42.652;23.040;2023-04-01T18:21:50;92016.13;;;10.78
28305;BMP280;15569;42.652;23.040;2023-04-01T18:24:41;92015.09;;;10.68
28305;BMP280;15569;42.652;23.040;2023-04-01T18:29:51;92021.22;;;10.88
28305;BMP280;15569;42.652;23.040;2023-04-01T18:35:14;92026.41;;;11.21
28305;BMP280;15569;42.652;23.040;2023-04-01T18:38:00;92022.53;;;11.28
28305;BMP280;15569;42.652;23.040;2023-04-01T18:40:36;92031.66;;;11.37
28305;BMP280;15569;42.652;23.040;2023-04-01T18:43:12;92015.09;;;10.68
28305;BMP280;15569;42.652;23.040;2023-04-01T18:45:57;92036.19;;;10.89
28305;BMP280;15569;42.652;23.040;2023-04-01T18:48:52;92024.63;;;10.49
28305;BMP280;15569;42.652;23.040;2023-04-01T18:51:34;92020.06;;;9.64
28305;BMP280;15569;42.652;23.040;2023-04-01T18:56:48;92040.59;;;9.51
28305;BMP280;15569;42.652;23.040;2023-04-01T18:59:22;92045.09;;;9.62
28305;BMP280;15569;42.652;23.040;2023-04-01T19:04:39;92046.66;;;10.02
28305;BMP280;15569;42.652;23.040;2023-04-01T19:07:51;92054.63;;;10.16
28305;BMP280;15569;42.652;23.040;2023-04-01T19:15:52;92069.22;;;9.89
28305;BMP280;15569;42.652;23.040;2023-04-01T19:37:18;92059.31;;;10.51
28305;BMP280;15569;42.652;23.040;2023-04-01T19:39:49;92070.00;;;10.64
28305;BMP280;15569;42.652;23.040;2023-04-01T19:48:03;92059.03;;;10.62
28305;BMP280;15569;42.652;23.040;2023-04-01T19:50:49;92059.47;;;10.37
28305;BMP280;15569;42.652;23.040;2023-04-01T19:53:25;92072.38;;;10.37
28305;BMP280;15569;42.652;23.040;2023-04-01T19:56:18;92068.56;;;10.44
28305;BMP280;15569;42.652;23.040;2023-04-01T19:58:52;92069.06;;;10.58
28305;BMP280;15569;42.652;23.040;2023-04-01T20:01:27;92056.97;;;10.61
28305;BMP280;15569;42.652;23.040;2023-04-01T20:04:04;92047.22;;;10.73
28305;BMP280;15569;42.652;23.040;2023-04-01T20:11:59;92072.53;;;11.39
28305;BMP280;15569;42.652;23.040;2023-04-01T20:14:43;92076.63;;;11.59
28305;BMP280;15569;42.652;23.040;2023-04-01T20:17:19;92089.22;;;11.70
28305;BMP280;15569;42.652;23.040;2023-04-01T20:28:00;92092.00;;;11.94
28305;BMP280;15569;42.652;23.040;2023-04-01T20:30:38;92097.00;;;11.80
28305;BMP280;15569;42.652;23.040;2023-04-01T20:36:06;92096.84;;;11.98
28305;BMP280;15569;42.652;23.040;2023-04-01T20:50:00;92106.84;;;12.13
28305;BMP280;15569;42.652;23.040;2023-04-01T20:55:17;92110.88;;;12.10
28305;BMP280;15569;42.652;23.040;2023-04-01T20:57:52;92104.56;;;12.05
28305;BMP280;15569;42.652;23.040;2023-04-01T21:00:37;92098.69;;;12.13
28305;BMP280;15569;42.652;23.040;2023-04-01T21:03:24;92100.69;;;12.10
28305;BMP280;15569;42.652;23.040;2023-04-01T21:09:29;92107.16;;;12.23
28305;BMP280;15569;42.652;23.040;2023-04-01T21:11:43;92106.66;;;12.28
28305;BMP280;15569;42.652;23.040;2023-04-01T21:28:43;92108.41;;;12.41
28305;BMP280;15569;42.652;23.040;2023-04-01T21:37:25;92124.63;;;11.92
28305;BMP280;15569;42.652;23.040;2023-04-01T21:45:41;92112.88;;;11.88
28305;BMP280;15569;42.652;23.040;2023-04-01T21:54:08;92111.13;;;11.96
28305;BMP280;15569;42.652;23.040;2023-04-01T21:57:15;92115.44;;;12.03
28305;BMP280;15569;42.652;23.040;2023-04-01T22:07:49;92118.97;;;12.08
28305;BMP280;15569;42.652;23.040;2023-04-01T22:13:16;92109.34;;;12.05
28305;BMP280;15569;42.652;23.040;2023-04-01T22:18:27;92106.81;;;12.11
28305;BMP280;15569;42.652;23.040;2023-04-01T22:21:25;92102.50;;;10.62
28305;BMP280;15569;42.652;23.040;2023-04-01T22:24:00;92104.72;;;10.48
28305;BMP280;15569;42.652;23.040;2023-04-01T22:29:56;92100.59;;;11.04
28305;BMP280;15569;42.652;23.040;2023-04-01T22:32:10;92103.66;;;11.34
28305;BMP280;15569;42.652;23.040;2023-04-01T22:34:45;92104.78;;;11.27
28305;BMP280;15569;42.652;23.040;2023-04-01T22:42:44;92116.63;;;10.96
28305;BMP280;15569;42.652;23.040;2023-04-01T22:50:34;92126.47;;;11.05
28305;BMP280;15569;42.652;23.040;2023-04-01T22:53:07;92132.63;;;11.05
28305;BMP280;15569;42.652;23.040;2023-04-01T22:55:35;92138.81;;;10.88
28305;BMP280;15569;42.652;23.040;2023-04-01T22:58:18;92128.34;;;11.00
28305;BMP280;15569;42.652;23.040;2023-04-01T23:00:49;92135.38;;;10.88
28305;BMP280;15569;42.652;23.040;2023-04-01T23:03:21;92132.81;;;10.92
28305;BMP280;15569;42.652;23.040;2023-04-01T23:05:51;92130.03;;;10.90
28305;BMP280;15569;42.652;23.040;2023-04-01T23:11:25;92113.50;;;10.84
28305;BMP280;15569;42.652;23.040;2023-04-01T23:14:51;92126.69;;;10.91
28305;BMP280;15569;42.652;23.040;2023-04-01T23:17:02;92139.97;;;10.83
28305;BMP280;15569;42.652;23.040;2023-04-01T23:27:45;92140.91;;;10.90
28305;BMP280;15569;42.652;23.040;2023-04-01T23:33:30;92143.38;;;10.64
28305;BMP280;15569;42.652;23.040;2023-04-01T23:35:59;92153.38;;;10.60
28305;BMP280;15569;42.652;23.040;2023-04-01T23:38:36;92152.91;;;10.65
28305;BMP280;15569;42.652;23.040;2023-04-01T23:41:02;92154.16;;;10.45
28305;BMP280;15569;42.652;23.040;2023-04-01T23:43:33;92162.00;;;10.54
28305;BMP280;15569;42.652;23.040;2023-04-01T23:46:02;92157.28;;;10.37
28305;BMP280;15569;42.652;23.040;2023-04-01T23:48:35;92164.56;;;10.15
28305;BMP280;15569;42.652;23.040;2023-04-01T23:51:02;92153.56;;;10.28
28305;BMP280;15569;42.652;23.040;2023-04-01T23:53:32;92146.09;;;10.11
28305;BMP280;15569;42.652;23.040;2023-04-01T23:55:58;92165.44;;;10.02
28305;BMP280;15569;42.652;23.040;2023-04-01T23:58:26;92164.47;;;9.95
